OIZJ  Jask Airport

Add Bookmark

Jask, Iran

Status
Operational
Latitude Longitude
25° 39' 12" N 57° 47' 57" E
25.653601 57.799301
Local (DST + 5) UTC (GMT + 4)
Jan 29, 2015 03:48 Jan 29, 2015 12:18
Sunrise-Sunset Local UTC
Begin Civil Twilight 05:58 02:28
Sunrise 06:22 02:52
Sunset 05:21 13:51
End Civil Twilight 05:45 14:15

Current Weather

METAR Observed MVFR
OIZJ 291200Z 22010KT 6000 SKC 23/17 Q1016 Thu, Jan 29, 2015 @ 12:00 UTC
(18 Minutes ago)
Marginal Visual Flight Rules
Wind Visibility Clouds Conditions
220° at 10 knots (19 kph) 6000 meters
  • Clear skies
  • No significant weather
Temperatures Readings Precipitation
Current Temp 23°C (73°F)
Dewpoint 17°C (63°F)
Humidity 69%
Altimeter 30"Hg
Sea Level Pressure 1016mb
Field Elevation 13.12'
None Recorded

Additional weather within a 185.2km radius of OIZJ

Map ICAO Location
OMFJ 159.8km W (248°)

24 Hour Weather History

Loading
-

24 Hour Weather Graphs

Loading
-

CheckWX.com is intended as a tool to help pilots better visualize weather data. It is not intended as a substitute for an official weather briefing obtained from a Flight Service Station. CheckWX.com does not meet the FAA requirements for an official pre-flight weather briefing. Therefore, it's important that pilots still call and obtain an official FSS pre-flight weather briefing.